sensor_id;sensor_type;location;lat;lon;timestamp;pressure;altitude;pressure_sealevel;temperature;humidity
50867;BME280;36839;51.946;21.002;2023-02-22T00:00:57;99927.10;;;2.81;100.00
50867;BME280;36839;51.946;21.002;2023-02-22T00:03:48;99923.28;;;2.79;100.00
50867;BME280;36839;51.946;21.002;2023-02-22T00:06:19;99927.19;;;2.75;100.00
50867;BME280;36839;51.946;21.002;2023-02-22T00:08:47;99935.35;;;2.71;100.00
50867;BME280;36839;51.946;21.002;2023-02-22T00:11:15;99940.32;;;2.70;100.00
50867;BME280;36839;51.946;21.002;2023-02-22T00:13:42;99940.81;;;2.68;100.00
50867;BME280;36839;51.946;21.002;2023-02-22T00:16:16;99943.84;;;2.67;100.00
50867;BME280;36839;51.946;21.002;2023-02-22T00:18:44;99944.39;;;2.66;100.00
50867;BME280;36839;51.946;21.002;2023-02-22T00:21:13;99943.77;;;2.65;100.00
50867;BME280;36839;51.946;21.002;2023-02-22T00:23:43;99946.70;;;2.65;100.00
50867;BME280;36839;51.946;21.002;2023-02-22T00:26:16;99947.00;;;2.64;100.00
50867;BME280;36839;51.946;21.002;2023-02-22T00:28:48;99949.77;;;2.64;100.00
50867;BME280;36839;51.946;21.002;2023-02-22T00:31:17;99948.95;;;2.63;100.00
50867;BME280;36839;51.946;21.002;2023-02-22T00:33:44;99950.99;;;2.60;100.00
50867;BME280;36839;51.946;21.002;2023-02-22T00:36:12;99951.12;;;2.61;100.00
50867;BME280;36839;51.946;21.002;2023-02-22T00:38:40;99952.86;;;2.59;100.00
50867;BME280;36839;51.946;21.002;2023-02-22T00:41:08;99954.09;;;2.55;100.00
50867;BME280;36839;51.946;21.002;2023-02-22T00:43:35;99951.58;;;2.51;100.00
50867;BME280;36839;51.946;21.002;2023-02-22T00:46:02;99956.87;;;2.46;100.00
50867;BME280;36839;51.946;21.002;2023-02-22T00:48:30;99957.06;;;2.40;100.00
50867;BME280;36839;51.946;21.002;2023-02-22T00:50:56;99956.90;;;2.34;100.00
50867;BME280;36839;51.946;21.002;2023-02-22T00:53:24;99957.59;;;2.27;100.00
50867;BME280;36839;51.946;21.002;2023-02-22T00:55:52;99962.64;;;2.20;100.00
50867;BME280;36839;51.946;21.002;2023-02-22T00:58:20;99968.48;;;2.13;100.00
50867;BME280;36839;51.946;21.002;2023-02-22T01:00:47;99976.30;;;2.08;100.00
50867;BME280;36839;51.946;21.002;2023-02-22T01:03:17;99977.17;;;2.04;100.00
50867;BME280;36839;51.946;21.002;2023-02-22T01:05:46;99980.02;;;1.99;100.00
50867;BME280;36839;51.946;21.002;2023-02-22T01:08:15;99982.27;;;1.95;100.00
50867;BME280;36839;51.946;21.002;2023-02-22T01:10:43;99986.29;;;1.90;100.00
50867;BME280;36839;51.946;21.002;2023-02-22T01:13:11;99986.52;;;1.86;100.00
50867;BME280;36839;51.946;21.002;2023-02-22T01:15:40;99988.27;;;1.83;100.00
50867;BME280;36839;51.946;21.002;2023-02-22T01:18:09;99992.89;;;1.81;100.00
50867;BME280;36839;51.946;21.002;2023-02-22T01:20:40;99989.25;;;1.77;100.00
50867;BME280;36839;51.946;21.002;2023-02-22T01:23:08;99995.35;;;1.74;100.00
50867;BME280;36839;51.946;21.002;2023-02-22T01:25:37;99996.58;;;1.70;100.00
50867;BME280;36839;51.946;21.002;2023-02-22T01:28:08;99995.96;;;1.68;100.00
50867;BME280;36839;51.946;21.002;2023-02-22T01:30:35;100003.10;;;1.65;100.00
50867;BME280;36839;51.946;21.002;2023-02-22T01:33:05;100003.67;;;1.61;100.00
50867;BME280;36839;51.946;21.002;2023-02-22T01:35:35;100005.73;;;1.59;100.00
50867;BME280;36839;51.946;21.002;2023-02-22T01:38:02;100011.73;;;1.58;100.00
50867;BME280;36839;51.946;21.002;2023-02-22T01:40:31;100014.20;;;1.57;100.00
50867;BME280;36839;51.946;21.002;2023-02-22T01:43:02;100017.08;;;1.54;100.00
50867;BME280;36839;51.946;21.002;2023-02-22T01:50:28;100024.60;;;1.41;100.00
50867;BME280;36839;51.946;21.002;2023-02-22T01:52:55;100025.96;;;1.38;100.00
50867;BME280;36839;51.946;21.002;2023-02-22T01:55:22;100025.23;;;1.33;100.00
50867;BME280;36839;51.946;21.002;2023-02-22T01:57:49;100026.65;;;1.31;100.00
50867;BME280;36839;51.946;21.002;2023-02-22T02:00:19;100028.86;;;1.27;100.00
50867;BME280;36839;51.946;21.002;2023-02-22T02:02:56;100027.90;;;1.23;100.00
50867;BME280;36839;51.946;21.002;2023-02-22T02:05:29;100026.84;;;1.18;100.00
50867;BME280;36839;51.946;21.002;2023-02-22T02:08:00;100031.20;;;1.15;100.00
50867;BME280;36839;51.946;21.002;2023-02-22T02:10:31;100032.40;;;1.11;100.00
50867;BME280;36839;51.946;21.002;2023-02-22T02:13:00;100036.82;;;1.09;100.00
50867;BME280;36839;51.946;21.002;2023-02-22T02:15:32;100040.27;;;1.06;100.00
50867;BME280;36839;51.946;21.002;2023-02-22T02:18:05;100038.96;;;1.04;100.00
50867;BME280;36839;51.946;21.002;2023-02-22T02:35:28;100056.59;;;0.94;100.00
50867;BME280;36839;51.946;21.002;2023-02-22T02:38:06;100055.91;;;0.94;100.00
50867;BME280;36839;51.946;21.002;2023-02-22T02:40:38;100055.54;;;0.93;100.00
50867;BME280;36839;51.946;21.002;2023-02-22T02:43:37;100061.48;;;0.92;100.00
50867;BME280;36839;51.946;21.002;2023-02-22T02:46:46;100060.46;;;0.88;100.00
50867;BME280;36839;51.946;21.002;2023-02-22T02:49:45;100059.73;;;0.82;100.00
50867;BME280;36839;51.946;21.002;2023-02-22T02:52:15;100058.71;;;0.76;100.00
50867;BME280;36839;51.946;21.002;2023-02-22T02:54:45;100058.75;;;0.72;100.00
50867;BME280;36839;51.946;21.002;2023-02-22T02:57:12;100061.27;;;0.67;100.00
50867;BME280;36839;51.946;21.002;2023-02-22T02:59:39;100061.56;;;0.62;100.00
50867;BME280;36839;51.946;21.002;2023-02-22T03:05:34;100062.04;;;0.58;100.00
50867;BME280;36839;51.946;21.002;2023-02-22T03:08:27;100072.01;;;0.54;100.00
50867;BME280;36839;51.946;21.002;2023-02-22T03:11:06;100070.79;;;0.53;100.00
50867;BME280;36839;51.946;21.002;2023-02-22T03:14:05;100072.98;;;0.50;100.00
50867;BME280;36839;51.946;21.002;2023-02-22T03:16:55;100073.21;;;0.47;100.00
50867;BME280;36839;51.946;21.002;2023-02-22T03:19:36;100072.25;;;0.45;100.00
50867;BME280;36839;51.946;21.002;2023-02-22T03:22:15;100075.98;;;0.43;100.00
50867;BME280;36839;51.946;21.002;2023-02-22T03:25:21;100081.80;;;0.40;100.00
50867;BME280;36839;51.946;21.002;2023-02-22T03:27:53;100085.71;;;0.38;100.00
50867;BME280;36839;51.946;21.002;2023-02-22T03:30:41;100089.84;;;0.35;100.00
50867;BME280;36839;51.946;21.002;2023-02-22T03:33:18;100096.91;;;0.32;100.00
50867;BME280;36839;51.946;21.002;2023-02-22T03:35:55;100095.27;;;0.29;100.00
50867;BME280;36839;51.946;21.002;2023-02-22T03:38:25;100097.06;;;0.25;100.00
50867;BME280;36839;51.946;21.002;2023-02-22T03:40:58;100098.44;;;0.21;100.00
50867;BME280;36839;51.946;21.002;2023-02-22T03:43:40;100096.04;;;0.15;100.00
50867;BME280;36839;51.946;21.002;2023-02-22T03:46:09;100101.99;;;0.09;100.00
50867;BME280;36839;51.946;21.002;2023-02-22T03:51:23;100104.17;;;-0.04;100.00
50867;BME280;36839;51.946;21.002;2023-02-22T03:53:52;100110.10;;;-0.08;100.00
50867;BME280;36839;51.946;21.002;2023-02-22T03:56:27;100111.11;;;-0.11;100.00
50867;BME280;36839;51.946;21.002;2023-02-22T03:59:08;100115.55;;;-0.13;100.00
50867;BME280;36839;51.946;21.002;2023-02-22T04:01:36;100115.34;;;-0.14;100.00
50867;BME280;36839;51.946;21.002;2023-02-22T04:04:03;100116.30;;;-0.15;100.00
50867;BME280;36839;51.946;21.002;2023-02-22T04:06:31;100119.52;;;-0.16;100.00
50867;BME280;36839;51.946;21.002;2023-02-22T04:08:58;100121.71;;;-0.18;100.00
50867;BME280;36839;51.946;21.002;2023-02-22T04:11:25;100121.50;;;-0.20;100.00
50867;BME280;36839;51.946;21.002;2023-02-22T04:13:52;100126.48;;;-0.22;100.00
50867;BME280;36839;51.946;21.002;2023-02-22T04:16:20;100125.20;;;-0.25;100.00
50867;BME280;36839;51.946;21.002;2023-02-22T04:18:47;100130.98;;;-0.29;100.00
50867;BME280;36839;51.946;21.002;2023-02-22T04:21:14;100129.20;;;-0.32;100.00
50867;BME280;36839;51.946;21.002;2023-02-22T04:23:41;100134.80;;;-0.33;100.00
50867;BME280;36839;51.946;21.002;2023-02-22T04:26:08;100134.92;;;-0.33;100.00
50867;BME280;36839;51.946;21.002;2023-02-22T04:28:35;100137.88;;;-0.33;100.00
50867;BME280;36839;51.946;21.002;2023-02-22T04:31:01;100141.23;;;-0.34;100.00
50867;BME280;36839;51.946;21.002;2023-02-22T04:33:30;100137.67;;;-0.34;100.00
50867;BME280;36839;51.946;21.002;2023-02-22T04:35:57;100141.98;;;-0.35;100.00
50867;BME280;36839;51.946;21.002;2023-02-22T04:38:27;100140.48;;;-0.34;100.00
50867;BME280;36839;51.946;21.002;2023-02-22T04:40:54;100140.23;;;-0.37;100.00
50867;BME280;36839;51.946;21.002;2023-02-22T04:43:21;100136.55;;;-0.39;100.00
50867;BME280;36839;51.946;21.002;2023-02-22T04:45:48;100142.27;;;-0.42;100.00
50867;BME280;36839;51.946;21.002;2023-02-22T04:48:16;100141.89;;;-0.45;100.00
50867;BME280;36839;51.946;21.002;2023-02-22T04:50:43;100149.58;;;-0.49;100.00
50867;BME280;36839;51.946;21.002;2023-02-22T04:53:10;100148.64;;;-0.52;100.00
50867;BME280;36839;51.946;21.002;2023-02-22T04:55:37;100146.39;;;-0.55;100.00
50867;BME280;36839;51.946;21.002;2023-02-22T04:58:05;100146.06;;;-0.58;100.00
50867;BME280;36839;51.946;21.002;2023-02-22T05:00:32;100144.25;;;-0.58;100.00
50867;BME280;36839;51.946;21.002;2023-02-22T05:02:59;100145.96;;;-0.55;100.00
50867;BME280;36839;51.946;21.002;2023-02-22T05:05:27;100147.52;;;-0.52;100.00
50867;BME280;36839;51.946;21.002;2023-02-22T05:07:54;100147.31;;;-0.51;100.00
50867;BME280;36839;51.946;21.002;2023-02-22T05:10:21;100147.36;;;-0.50;100.00
50867;BME280;36839;51.946;21.002;2023-02-22T05:12:48;100151.45;;;-0.49;100.00
50867;BME280;36839;51.946;21.002;2023-02-22T05:15:18;100145.92;;;-0.47;100.00
50867;BME280;36839;51.946;21.002;2023-02-22T05:17:46;100150.98;;;-0.46;100.00
50867;BME280;36839;51.946;21.002;2023-02-22T05:20:24;100162.64;;;-0.43;100.00
50867;BME280;36839;51.946;21.002;2023-02-22T05:22:57;100166.35;;;-0.40;100.00
50867;BME280;36839;51.946;21.002;2023-02-22T05:25:27;100171.98;;;-0.36;100.00
50867;BME280;36839;51.946;21.002;2023-02-22T05:27:57;100173.58;;;-0.33;100.00
50867;BME280;36839;51.946;21.002;2023-02-22T05:30:29;100175.34;;;-0.32;100.00
50867;BME280;36839;51.946;21.002;2023-02-22T05:32:57;100182.02;;;-0.31;100.00
50867;BME280;36839;51.946;21.002;2023-02-22T05:35:26;100184.77;;;-0.29;100.00
50867;BME280;36839;51.946;21.002;2023-02-22T05:37:53;100190.09;;;-0.25;100.00
50867;BME280;36839;51.946;21.002;2023-02-22T05:40:23;100193.34;;;-0.22;100.00
50867;BME280;36839;51.946;21.002;2023-02-22T05:42:51;100197.49;;;-0.19;100.00
50867;BME280;36839;51.946;21.002;2023-02-22T05:45:20;100194.55;;;-0.15;100.00
50867;BME280;36839;51.946;21.002;2023-02-22T05:47:47;100204.70;;;-0.13;100.00
50867;BME280;36839;51.946;21.002;2023-02-22T05:50:17;100209.43;;;-0.12;100.00
50867;BME280;36839;51.946;21.002;2023-02-22T05:52:46;100219.14;;;-0.09;100.00
50867;BME280;36839;51.946;21.002;2023-02-22T05:55:17;100220.11;;;-0.06;100.00
50867;BME280;36839;51.946;21.002;2023-02-22T05:57:44;100216.74;;;-0.02;100.00
50867;BME280;36839;51.946;21.002;2023-02-22T06:00:27;100220.54;;;0.01;100.00
50867;BME280;36839;51.946;21.002;2023-02-22T06:02:57;100228.39;;;0.02;100.00
50867;BME280;36839;51.946;21.002;2023-02-22T06:05:25;100233.45;;;0.02;100.00
50867;BME280;36839;51.946;21.002;2023-02-22T06:07:52;100234.70;;;0.06;100.00
50867;BME280;36839;51.946;21.002;2023-02-22T06:10:19;100240.73;;;0.08;100.00
50867;BME280;36839;51.946;21.002;2023-02-22T06:12:48;100242.55;;;0.12;100.00
50867;BME280;36839;51.946;21.002;2023-02-22T06:15:17;100242.94;;;0.13;100.00
50867;BME280;36839;51.946;21.002;2023-02-22T06:17:44;100245.79;;;0.15;100.00
50867;BME280;36839;51.946;21.002;2023-02-22T06:20:15;100247.58;;;0.16;100.00
50867;BME280;36839;51.946;21.002;2023-02-22T06:22:42;100250.04;;;0.17;100.00
50867;BME280;36839;51.946;21.002;2023-02-22T06:25:12;100253.14;;;0.17;100.00
50867;BME280;36839;51.946;21.002;2023-02-22T06:27:40;100251.14;;;0.18;100.00
50867;BME280;36839;51.946;21.002;2023-02-22T06:30:09;100250.70;;;0.20;100.00
50867;BME280;36839;51.946;21.002;2023-02-22T06:32:37;100256.30;;;0.21;100.00
50867;BME280;36839;51.946;21.002;2023-02-22T06:35:05;100262.16;;;0.22;100.00
50867;BME280;36839;51.946;21.002;2023-02-22T06:37:32;100265.75;;;0.25;100.00
50867;BME280;36839;51.946;21.002;2023-02-22T06:39:59;100268.39;;;0.27;100.00
50867;BME280;36839;51.946;21.002;2023-02-22T06:42:26;100274.59;;;0.29;100.00
50867;BME280;36839;51.946;21.002;2023-02-22T06:44:53;100274.57;;;0.32;100.00
50867;BME280;36839;51.946;21.002;2023-02-22T06:47:20;100276.45;;;0.35;100.00
50867;BME280;36839;51.946;21.002;2023-02-22T06:49:54;100278.13;;;0.37;100.00
50867;BME280;36839;51.946;21.002;2023-02-22T06:52:22;100279.34;;;0.39;100.00
50867;BME280;36839;51.946;21.002;2023-02-22T06:54:50;100279.71;;;0.42;100.00
50867;BME280;36839;51.946;21.002;2023-02-22T06:57:17;100277.63;;;0.44;100.00
50867;BME280;36839;51.946;21.002;2023-02-22T06:59:44;100278.44;;;0.49;100.00
50867;BME280;36839;51.946;21.002;2023-02-22T07:02:12;100285.14;;;0.53;100.00
50867;BME280;36839;51.946;21.002;2023-02-22T07:04:39;100279.50;;;0.55;100.00
50867;BME280;36839;51.946;21.002;2023-02-22T07:07:06;100277.68;;;0.57;100.00
50867;BME280;36839;51.946;21.002;2023-02-22T07:09:33;100280.83;;;0.59;100.00
50867;BME280;36839;51.946;21.002;2023-02-22T07:12:00;100284.59;;;0.64;100.00
50867;BME280;36839;51.946;21.002;2023-02-22T07:14:28;100287.36;;;0.66;100.00
50867;BME280;36839;51.946;21.002;2023-02-22T07:16:55;100287.84;;;0.71;100.00
50867;BME280;36839;51.946;21.002;2023-02-22T07:19:22;100290.60;;;0.74;100.00
50867;BME280;36839;51.946;21.002;2023-02-22T07:21:51;100297.23;;;0.79;100.00
50867;BME280;36839;51.946;21.002;2023-02-22T07:24:25;100299.36;;;0.84;100.00
50867;BME280;36839;51.946;21.002;2023-02-22T07:26:54;100300.73;;;0.88;100.00
50867;BME280;36839;51.946;21.002;2023-02-22T07:29:22;100304.59;;;0.94;100.00
50867;BME280;36839;51.946;21.002;2023-02-22T07:31:49;100303.90;;;0.99;100.00
50867;BME280;36839;51.946;21.002;2023-02-22T07:34:16;100306.30;;;1.04;100.00
50867;BME280;36839;51.946;21.002;2023-02-22T07:36:43;100301.64;;;1.09;100.00
50867;BME280;36839;51.946;21.002;2023-02-22T07:39:10;100297.08;;;1.12;100.00
50867;BME280;36839;51.946;21.002;2023-02-22T07:41:38;100296.73;;;1.15;100.00
50867;BME280;36839;51.946;21.002;2023-02-22T07:44:05;100295.05;;;1.21;100.00
50867;BME280;36839;51.946;21.002;2023-02-22T07:46:32;100297.07;;;1.27;100.00
50867;BME280;36839;51.946;21.002;2023-02-22T07:49:00;100296.20;;;1.32;100.00
50867;BME280;36839;51.946;21.002;2023-02-22T07:51:27;100300.40;;;1.37;100.00
50867;BME280;36839;51.946;21.002;2023-02-22T07:53:54;100298.22;;;1.49;100.00
50867;BME280;36839;51.946;21.002;2023-02-22T07:56:21;100297.72;;;1.54;100.00
50867;BME280;36839;51.946;21.002;2023-02-22T07:58:48;100299.98;;;1.56;100.00
50867;BME280;36839;51.946;21.002;2023-02-22T08:01:15;100298.40;;;2.24;100.00
50867;BME280;36839;51.946;21.002;2023-02-22T08:03:42;100300.41;;;2.98;100.00
50867;BME280;36839;51.946;21.002;2023-02-22T08:06:13;100294.83;;;3.22;100.00
50867;BME280;36839;51.946;21.002;2023-02-22T08:08:41;100297.36;;;3.63;100.00
50867;BME280;36839;51.946;21.002;2023-02-22T08:11:08;100296.86;;;3.77;100.00
50867;BME280;36839;51.946;21.002;2023-02-22T08:13:37;100297.77;;;3.83;100.00
50867;BME280;36839;51.946;21.002;2023-02-22T08:16:05;100299.02;;;3.84;100.00
50867;BME280;36839;51.946;21.002;2023-02-22T08:18:32;100295.92;;;3.82;100.00
50867;BME280;36839;51.946;21.002;2023-02-22T08:20:59;100294.27;;;3.74;100.00
50867;BME280;36839;51.946;21.002;2023-02-22T08:23:26;100299.75;;;3.53;100.00
50867;BME280;36839;51.946;21.002;2023-02-22T08:25:54;100300.09;;;3.26;100.00
50867;BME280;36839;51.946;21.002;2023-02-22T08:28:23;100294.55;;;3.12;100.00
50867;BME280;36839;51.946;21.002;2023-02-22T08:30:52;100291.70;;;3.04;100.00
50867;BME280;36839;51.946;21.002;2023-02-22T08:33:19;100297.16;;;2.89;100.00
50867;BME280;36839;51.946;21.002;2023-02-22T08:35:47;100296.47;;;2.78;100.00
50867;BME280;36839;51.946;21.002;2023-02-22T08:38:21;100297.49;;;2.74;100.00
50867;BME280;36839;51.946;21.002;2023-02-22T08:40:49;100297.23;;;2.69;100.00
50867;BME280;36839;51.946;21.002;2023-02-22T08:43:17;100306.20;;;2.69;100.00
50867;BME280;36839;51.946;21.002;2023-02-22T08:45:45;100304.83;;;2.67;100.00
50867;BME280;36839;51.946;21.002;2023-02-22T08:48:14;100310.33;;;2.65;100.00
50867;BME280;36839;51.946;21.002;2023-02-22T08:50:41;100305.98;;;2.67;100.00
50867;BME280;36839;51.946;21.002;2023-02-22T08:53:11;100308.47;;;2.70;100.00
50867;BME280;36839;51.946;21.002;2023-02-22T08:55:39;100311.83;;;2.77;100.00
50867;BME280;36839;51.946;21.002;2023-02-22T08:58:07;100316.25;;;2.81;100.00
50867;BME280;36839;51.946;21.002;2023-02-22T09:00:36;100320.56;;;2.86;100.00
50867;BME280;36839;51.946;21.002;2023-02-22T09:03:09;100323.42;;;2.93;100.00
50867;BME280;36839;51.946;21.002;2023-02-22T09:05:39;100325.79;;;2.98;100.00
50867;BME280;36839;51.946;21.002;2023-02-22T09:08:06;100326.27;;;2.99;100.00
50867;BME280;36839;51.946;21.002;2023-02-22T09:10:34;100326.91;;;2.98;100.00
50867;BME280;36839;51.946;21.002;2023-02-22T09:13:02;100324.54;;;2.96;100.00
50867;BME280;36839;51.946;21.002;2023-02-22T09:15:30;100330.35;;;2.99;100.00
50867;BME280;36839;51.946;21.002;2023-02-22T09:17:58;100327.67;;;3.03;100.00
50867;BME280;36839;51.946;21.002;2023-02-22T09:20:26;100328.23;;;3.08;100.00
50867;BME280;36839;51.946;21.002;2023-02-22T09:22:54;100333.56;;;3.09;100.00
50867;BME280;36839;51.946;21.002;2023-02-22T09:25:21;100331.58;;;3.13;100.00
50867;BME280;36839;51.946;21.002;2023-02-22T09:27:51;100330.90;;;3.20;100.00
50867;BME280;36839;51.946;21.002;2023-02-22T09:30:25;100330.11;;;3.26;100.00
50867;BME280;36839;51.946;21.002;2023-02-22T09:32:54;100327.45;;;3.28;100.00
50867;BME280;36839;51.946;21.002;2023-02-22T09:35:22;100328.44;;;3.30;100.00
50867;BME280;36839;51.946;21.002;2023-02-22T09:37:58;100331.16;;;3.30;100.00
50867;BME280;36839;51.946;21.002;2023-02-22T09:40:27;100328.89;;;3.30;100.00
50867;BME280;36839;51.946;21.002;2023-02-22T09:43:14;100325.25;;;3.32;100.00
50867;BME280;36839;51.946;21.002;2023-02-22T09:48:48;100328.04;;;3.22;100.00
50867;BME280;36839;51.946;21.002;2023-02-22T09:51:19;100331.91;;;3.12;100.00
50867;BME280;36839;51.946;21.002;2023-02-22T09:53:48;100332.52;;;3.08;100.00
50867;BME280;36839;51.946;21.002;2023-02-22T09:56:19;100332.81;;;3.22;100.00
50867;BME280;36839;51.946;21.002;2023-02-22T09:58:49;100331.58;;;3.31;100.00
50867;BME280;36839;51.946;21.002;2023-02-22T10:07:05;100343.27;;;3.14;100.00
50867;BME280;36839;51.946;21.002;2023-02-22T10:09:41;100337.08;;;3.05;100.00
50867;BME280;36839;51.946;21.002;2023-02-22T10:12:16;100339.20;;;2.94;100.00
50867;BME280;36839;51.946;21.002;2023-02-22T10:26:14;100345.66;;;2.36;100.00
50867;BME280;36839;51.946;21.002;2023-02-22T10:28:51;100347.46;;;2.34;100.00
50867;BME280;36839;51.946;21.002;2023-02-22T10:31:29;100346.48;;;2.36;100.00
50867;BME280;36839;51.946;21.002;2023-02-22T10:34:01;100343.81;;;2.40;100.00
50867;BME280;36839;51.946;21.002;2023-02-22T10:36:29;100349.04;;;2.44;100.00
50867;BME280;36839;51.946;21.002;2023-02-22T10:41:42;100341.90;;;2.44;100.00
50867;BME280;36839;51.946;21.002;2023-02-22T10:44:10;100349.66;;;2.47;100.00
50867;BME280;36839;51.946;21.002;2023-02-22T10:46:38;100347.45;;;2.43;100.00
50867;BME280;36839;51.946;21.002;2023-02-22T10:49:09;100346.59;;;2.34;100.00
50867;BME280;36839;51.946;21.002;2023-02-22T10:51:38;100347.36;;;2.31;100.00
50867;BME280;36839;51.946;21.002;2023-02-22T10:56:51;100341.07;;;2.31;100.00
50867;BME280;36839;51.946;21.002;2023-02-22T10:59:37;100343.96;;;2.29;100.00
50867;BME280;36839;51.946;21.002;2023-02-22T11:04:50;100343.64;;;2.41;100.00
50867;BME280;36839;51.946;21.002;2023-02-22T11:07:27;100345.52;;;2.43;100.00
50867;BME280;36839;51.946;21.002;2023-02-22T11:10:06;100347.45;;;2.45;100.00
50867;BME280;36839;51.946;21.002;2023-02-22T11:12:39;100341.02;;;2.42;100.00
50867;BME280;36839;51.946;21.002;2023-02-22T11:17:50;100337.29;;;2.56;100.00
50867;BME280;36839;51.946;21.002;2023-02-22T11:20:24;100332.52;;;2.68;100.00
50867;BME280;36839;51.946;21.002;2023-02-22T11:22:56;100331.77;;;2.73;100.00
50867;BME280;36839;51.946;21.002;2023-02-22T11:25:34;100334.84;;;2.76;100.00
50867;BME280;36839;51.946;21.002;2023-02-22T11:28:30;100338.52;;;2.76;100.00
50867;BME280;36839;51.946;21.002;2023-02-22T11:31:26;100339.98;;;2.78;100.00
50867;BME280;36839;51.946;21.002;2023-02-22T11:34:01;100339.11;;;2.84;100.00
50867;BME280;36839;51.946;21.002;2023-02-22T11:36:35;100342.27;;;2.84;100.00
50867;BME280;36839;51.946;21.002;2023-02-22T11:39:27;100339.48;;;2.83;100.00
50867;BME280;36839;51.946;21.002;2023-02-22T11:41:55;100340.11;;;2.83;100.00
50867;BME280;36839;51.946;21.002;2023-02-22T11:44:26;100344.70;;;2.81;100.00
50867;BME280;36839;51.946;21.002;2023-02-22T11:46:55;100340.77;;;2.79;100.00
50867;BME280;36839;51.946;21.002;2023-02-22T11:49:38;100342.63;;;2.77;100.00
50867;BME280;36839;51.946;21.002;2023-02-22T11:54:53;100342.13;;;2.64;100.00
50867;BME280;36839;51.946;21.002;2023-02-22T12:06:23;100353.34;;;1.74;100.00
50867;BME280;36839;51.946;21.002;2023-02-22T12:09:17;100354.64;;;1.70;100.00
50867;BME280;36839;51.946;21.002;2023-02-22T12:15:07;100357.35;;;1.55;100.00
50867;BME280;36839;51.946;21.002;2023-02-22T12:17:59;100359.89;;;1.45;100.00
50867;BME280;36839;51.946;21.002;2023-02-22T12:20:36;100363.58;;;1.45;100.00
50867;BME280;36839;51.946;21.002;2023-02-22T12:25:57;100368.23;;;1.44;100.00
50867;BME280;36839;51.946;21.002;2023-02-22T12:28:36;100365.53;;;1.38;100.00
50867;BME280;36839;51.946;21.002;2023-02-22T12:31:29;100367.81;;;1.50;100.00
50867;BME280;36839;51.946;21.002;2023-02-22T12:34:30;100370.09;;;1.38;100.00
50867;BME280;36839;51.946;21.002;2023-02-22T12:37:06;100379.09;;;1.39;100.00
50867;BME280;36839;51.946;21.002;2023-02-22T12:42:21;100381.77;;;1.35;100.00
50867;BME280;36839;51.946;21.002;2023-02-22T12:44:55;100387.05;;;1.38;100.00
50867;BME280;36839;51.946;21.002;2023-02-22T12:47:31;100386.67;;;1.35;100.00
50867;BME280;36839;51.946;21.002;2023-02-22T12:50:20;100389.52;;;1.42;100.00
50867;BME280;36839;51.946;21.002;2023-02-22T12:52:54;100385.73;;;1.46;100.00
50867;BME280;36839;51.946;21.002;2023-02-22T12:55:25;100388.75;;;1.56;100.00
50867;BME280;36839;51.946;21.002;2023-02-22T13:03:35;100393.83;;;1.67;100.00
50867;BME280;36839;51.946;21.002;2023-02-22T13:06:07;100395.13;;;1.66;100.00
50867;BME280;36839;51.946;21.002;2023-02-22T13:12:06;100401.16;;;1.67;100.00
50867;BME280;36839;51.946;21.002;2023-02-22T13:20:38;100415.41;;;1.69;100.00
50867;BME280;36839;51.946;21.002;2023-02-22T13:25:54;100415.45;;;1.70;100.00
50867;BME280;36839;51.946;21.002;2023-02-22T13:28:49;100418.84;;;1.68;100.00
50867;BME280;36839;51.946;21.002;2023-02-22T13:31:44;100415.11;;;1.67;100.00
50867;BME280;36839;51.946;21.002;2023-02-22T13:45:18;100416.79;;;1.63;100.00
50867;BME280;36839;51.946;21.002;2023-02-22T13:53:34;100419.05;;;1.48;100.00
50867;BME280;36839;51.946;21.002;2023-02-22T13:56:04;100422.26;;;1.33;100.00
50867;BME280;36839;51.946;21.002;2023-02-22T13:58:31;100419.71;;;1.34;100.00
50867;BME280;36839;51.946;21.002;2023-02-22T14:01:37;100420.25;;;1.35;100.00
50867;BME280;36839;51.946;21.002;2023-02-22T14:04:41;100423.00;;;1.33;100.00
50867;BME280;36839;51.946;21.002;2023-02-22T14:09:55;100420.21;;;1.40;100.00
50867;BME280;36839;51.946;21.002;2023-02-22T14:12:48;100423.98;;;1.42;100.00
50867;BME280;36839;51.946;21.002;2023-02-22T14:15:17;100427.54;;;1.39;100.00
50867;BME280;36839;51.946;21.002;2023-02-22T14:20:34;100431.90;;;1.31;100.00
50867;BME280;36839;51.946;21.002;2023-02-22T14:23:44;100439.09;;;1.24;100.00
50867;BME280;36839;51.946;21.002;2023-02-22T14:26:18;100439.36;;;1.21;100.00
50867;BME280;36839;51.946;21.002;2023-02-22T14:28:58;100439.58;;;1.21;100.00
50867;BME280;36839;51.946;21.002;2023-02-22T14:36:57;100444.04;;;1.14;100.00
50867;BME280;36839;51.946;21.002;2023-02-22T14:39:41;100442.98;;;1.13;100.00
50867;BME280;36839;51.946;21.002;2023-02-22T14:50:36;100440.83;;;1.07;100.00
50867;BME280;36839;51.946;21.002;2023-02-22T14:55:59;100441.84;;;1.01;100.00
50867;BME280;36839;51.946;21.002;2023-02-22T14:58:43;100443.27;;;1.43;100.00
50867;BME280;36839;51.946;21.002;2023-02-22T15:03:45;100432.23;;;1.94;100.00
50867;BME280;36839;51.946;21.002;2023-02-22T15:06:19;100433.39;;;1.75;100.00
50867;BME280;36839;51.946;21.002;2023-02-22T15:09:03;100436.21;;;1.62;100.00
50867;BME280;36839;51.946;21.002;2023-02-22T15:11:31;100430.87;;;1.48;100.00
50867;BME280;36839;51.946;21.002;2023-02-22T15:13:59;100432.75;;;1.35;100.00
50867;BME280;36839;51.946;21.002;2023-02-22T15:16:29;100438.70;;;1.22;100.00
50867;BME280;36839;51.946;21.002;2023-02-22T15:18:59;100435.68;;;1.08;100.00
50867;BME280;36839;51.946;21.002;2023-02-22T15:21:29;100430.59;;;0.92;100.00